• Join FlightAware (Why Join?)
  • Login
  • US Flag 
07:41PM EDT


 

Airport Tracker/Info


-or-


 

Live Flight TrackerFlight Track Log ✈ DAL6067 ✈ 25-Apr-2013 ✈ KDTW - KCMH

Flight Track Log - Related Links

Times and Time Zones

All times are in EDT time to prevent confusion due to time zone crossing. See the DAL6067 flight status page for this flight to view local times or setup timezone preferences in your user account.

Time Position Orientation Groundspeed Altitude Reporting Facility
EDT Latitude Longitude Course Direction KTS MPH feet Rate Location/Type
12:22PM 42.2022 -83.3522 180° South 156 180 1,400  Level FAA TRACON SMA TRACON (SMA)
12:22PM 42.1869 -83.3553 188° South 170 196 2,100 2,100 Climbing FAA TRACON SMA TRACON (SMA)
12:22PM 42.1711 -83.3586 189° South 188 216 2,800 2,520 Climbing FAA TRACON SMA TRACON (SMA)
12:23PM 42.1519 -83.3622 188° South 198 228 3,800 2,820 Climbing FAA TRACON SMA TRACON (SMA)
12:23PM 42.1311 -83.3658 187° South 209 241 4,700 2,700 Climbing FAA TRACON SMA TRACON (SMA)
12:23PM 42.1053 -83.3708 188° South 220 253 5,800 2,580 Climbing Cleveland Center
12:25PM 41.8507 -83.2758 180° South  Level Estimated
12:25PM 42.0044 -83.3656 178° South 237 273 9,900  Level FAA TRACON SMA TRACON (SMA)
12:25PM 41.9833 -83.3642 177° South 242 278 10,600 1,800 Climbing FAA TRACON SMA TRACON (SMA)
12:26PM 41.7603 -83.2566 180° South  Level Estimated
12:26PM 41.9611 -83.3622 176° South 255 293 11,100  Level FAA TRACON SMA TRACON (SMA)
12:26PM 41.9317 -83.3600 177° South 276 318 11,800 1,320 Climbing FAA TRACON SMA TRACON (SMA)
12:26PM 41.9075 -83.3581 177° South 282 325 12,000 600 Climbing FAA TRACON SMA TRACON (SMA)
12:27PM 41.6698 -83.2374 180° South  Level Estimated
12:27PM 41.8817 -83.3564 177° South 299 344 12,200  Level FAA TRACON SMA TRACON (SMA)
12:27PM 41.8481 -83.3539 177° South 311 358 12,700 1,320 Climbing FAA TRACON SMA TRACON (SMA)
12:27PM 41.8206 -83.3517 177° South 320 368 13,100 1,200 Climbing FAA TRACON SMA TRACON (SMA)
12:28PM 41.7922 -83.3494 177° South 327 376 13,500 1,320 Climbing FAA TRACON SMA TRACON (SMA)
12:28PM 41.7564 -83.3456 175° South 333 383 14,000 1,500 Climbing FAA TRACON SMA TRACON (SMA)
12:28PM 41.7278 -83.3431 176° South 335 386 14,500 1,320 Climbing FAA TRACON SMA TRACON (SMA)
12:29PM 41.6986 -83.3411 177° South 337 388 14,900 1,500 Climbing FAA TRACON SMA TRACON (SMA)
12:29PM 41.6619 -83.3378 176° South 342 394 15,500 1,500 Climbing FAA TRACON SMA TRACON (SMA)
12:29PM 41.6322 -83.3356 177° South 345 397 15,900 720 Climbing FAA TRACON SMA TRACON (SMA)
12:30PM 41.5944 -83.3322 176° South 352 405 16,000 120 Climbing FAA TRACON SMA TRACON (SMA)
12:30PM 41.5628 -83.3297 177° South 364 419 16,000  Level FAA TRACON SMA TRACON (SMA)
12:30PM 41.5300 -83.3267 176° South 380 437 16,000  Level FAA TRACON SMA TRACON (SMA)
12:31PM 41.4972 -83.3242 177° South 385 443 16,000  Level FAA TRACON SMA TRACON (SMA)
12:31PM 41.4600 -83.3211 176° South 390 449 16,000  Level FAA TRACON SMA TRACON (SMA)
12:31PM 41.4181 -83.3167 175° South 392 451 16,000  Level FAA TRACON SMA TRACON (SMA)
12:32PM 41.3844 -83.3139 176° South 394 453 16,000  Level FAA TRACON SMA TRACON (SMA)
12:32PM 41.3506 -83.3119 178° South 393 452 16,000  Level FAA TRACON SMA TRACON (SMA)
12:32PM 41.3339 -83.3108 177° South 394 453 16,000  Level FAA TRACON SMA TRACON (SMA)
12:33PM 41.2106 -83.3019 177° South 392 451 16,000 -540 Level Cleveland Center
12:34PM 41.1022 -83.2947 177° South 392 451 15,000 -1,140 Descending Cleveland Center
12:35PM 41.0003 -83.2850 176° South 387 445 13,800 -1,200 Descending Cleveland Center
12:36PM 40.8983 -83.2781 177° South 377 434 12,700 -1,260 Descending Cleveland Center
12:37PM 40.8006 -83.2686 176° South 361 415 11,300 -840 Descending Cleveland Center
12:40PM 40.5892 -83.2497 176° South 324 373 9,900 -420 Descending Indianapolis Center
12:41PM 40.4992 -83.2117 162° South 340 391 9,900  Level Indianapolis Center
12:42PM 40.4139 -83.1581 154° Southeast 339 390 9,900  Level Indianapolis Center
12:43PM 40.3294 -83.1042 154° Southeast 334 384 9,900  Level Indianapolis Center
12:44PM 40.2322 -83.0408 154° Southeast 331 381 9,900 -120 Level Indianapolis Center
12:45PM 40.1519 -82.9900 154° Southeast 312 359 9,700 -900 Descending Indianapolis Center
12:46PM 40.1142 -82.9106 122° Southeast 288 331 8,100 -1,680 Descending Indianapolis Center
12:47PM 40.0994 -82.8128 101° East 273 314 6,400 -1,800 Descending Indianapolis Center
12:48PM 40.0839 -82.7261 103° East 242 278 4,500 -1,620 Descending Indianapolis Center
12:49PM 40.0372 -82.6917 151° Southeast 225 259 3,100 -1,320 Descending Indianapolis Center